« Back
NWS Peachtree City, Ga » Text Product » ATL Terminal Aerodrome Forecast


Printer-friendly Version
Current Version              Previous Versions:   1  2  3  4  5  6  7  8  9  

Terminal Aerodrome Forecast

133
FTUS42 KFFC 011942 AAA
TAFATL
TAF AMD
KATL 011942Z 0120/0224 17009KT P6SM -RA BKN020 OVC045
     FM012100 17009KT 5SM -RA SCT008 BKN015 OVC030
     FM020100 19010KT 3SM RA OVC008
     FM020800 27010KT 3SM -RA BKN008 OVC012
     FM021000 30010G20KT 5SM -RA SCT008 OVC012
     FM021700 31012G25KT P6SM BKN040=

USA.gov is the U.S. government's official web portal to all federal, state and local government web resources and services.